This is the latest recevied weather packets stored in our database for station/object TG9ADI-20. If no packets are shown the sender has not sent any weather packets the latest 10 day(s).
| Time | Temp. | Humidity | Pressure | Rain* | Wind** | Luminosity | Snow |
|---|---|---|---|---|---|---|---|
| 1777814223 | 19.44° C | 87% | 1015 hPa | 0 mm | - | - | - |
| 1777813623 | 17.78° C | 89% | 1015 hPa | 0 mm | - | - | - |
| 1777813022 | 17.78° C | 89% | 1016 hPa | 0 mm | - | - | - |
| 1777812421 | 17.22° C | 93% | 1016 hPa | 0 mm | - | - | - |
| 1777811821 | 17.78° C | 90% | 1016 hPa | 0 mm | - | - | - |
| 1777811220 | 17.78° C | 90% | 1015 hPa | 0 mm | - | - | - |
| 1777810620 | 16.11° C | 93% | 1015 hPa | 0 mm | - | - | - |
| 1777810019 | 16.67° C | 92% | 1015 hPa | 0 mm | - | - | - |
| 1777809418 | 16.67° C | 90% | 1016 hPa | 0 mm | - | - | - |
| 1777808818 | 17.22° C | 89% | 1016 hPa | 0 mm | - | - | - |
| 1777808217 | 18.33° C | 84% | 1016 hPa | 0 mm | - | - | - |
| 1777807616 | 19.44° C | 77% | 1015 hPa | 0 mm | - | - | - |
| 1777807016 | 15.56° C | 95% | 1015 hPa | 0 mm | - | - | - |
| 1777806415 | 15.56° C | 95% | 1015 hPa | 0 mm | - | - | - |
| 1777805815 | 16.11° C | 95% | 1016 hPa | 0 mm | - | - | - |
| 1777805214 | 16.67° C | 94% | 1015 hPa | 0 mm | - | - | - |
| 1777804613 | 17.22° C | 93% | 1015 hPa | 0 mm | - | - | - |
| 1777804013 | 17.78° C | 92% | 1014 hPa | 0 mm | - | - | - |
| 1777803412 | 18.89° C | 88% | 1014 hPa | 0 mm | - | - | - |
| 1777802812 | 19.44° C | 83% | 1014 hPa | 0 mm | - | - | - |
| 1777802211 | 16.11° C | 97% | 1015 hPa | 0 mm | - | - | - |
| 1777801610 | 16.67° C | 96% | 1015 hPa | 0 mm | - | - | - |
| 1777801009 | 17.22° C | 96% | 1015 hPa | 0 mm | - | - | - |
| 1777800409 | 17.78° C | 95% | 1015 hPa | 0 mm | - | - | - |
| 1777799808 | 18.89° C | 92% | 1015 hPa | 0 mm | - | - | - |
* Rain latest hour (hover to see other rain measurements)
** Current wind speed in m/s (hover to see current wind gust speed)